Terminal Aerodrome Forecast
Issued by NWS

Current Version | Previous Version | Text Only | Print | Product List | Glossary On
Versions: 1 2 3 4 5 6 7 8 9 10 11 12 13 14 15 16 17 18 19 20 21
000 FTUS42 KRAH 280525 TAFRWI TAF KRWI 280525Z 2806/2906 18005KT P6SM SCT050 BKN120 TEMPO 2809/2812 3SM BR BKN012 FM281200 20004KT 4SM -SHRA BKN015 FM281500 21006KT P6SM VCSH OVC035 TEMPO 2816/2820 2SM TSRA BKN025CB FM282200 01005KT P6SM BKN025 FM290300 24004KT 4SM BR BKN050=

USA.gov is the U.S. government's official web portal to all federal, state and local government web resources and services.